Time;durP1;ratioP1;P1;durP2;ratioP2;P2;SDS_P1;SDS_P2;PMS_P1;PMS_P2;Temp;Humidity;BMP_temperature;BMP_pressure;BME280_temperature;BME280_humidity;BME280_pressure;Samples;Min_cycle;Max_cycle;Signal;HPM_P1;HPM_P2
2020/12/16 00:00:46;;;;;;;;;;;13.30;99.30;;;;;;2081738;28;719;-52
2020/12/16 00:02:05;;;;;;;;;;;13.30;99.30;;;;;;2082272;28;736;-51
2020/12/16 00:03:24;;;;;;;;;;;13.30;99.30;;;;;;2081869;28;788;-54
2020/12/16 00:04:44;;;;;;;;;;;13.30;99.30;;;;;;2081716;28;733;-53
2020/12/16 00:06:03;;;;;;;;;;;13.30;99.30;;;;;;2082327;28;730;-51
2020/12/16 00:07:23;;;;;;;;;;;13.30;99.20;;;;;;2082370;28;738;-51
2020/12/16 00:08:42;;;;;;;;;;;13.30;99.20;;;;;;2076121;28;874;-52
2020/12/16 00:10:01;;;;;;;;;;;13.30;99.20;;;;;;2073639;28;1057;-51
2020/12/16 00:11:20;;;;;;;;;;;13.30;99.10;;;;;;2073291;28;1910;-51
2020/12/16 00:12:39;;;;;;;;;;;13.30;99.10;;;;;;2073711;28;775;-51
2020/12/16 00:13:58;;;;;;;;;;;13.30;99.10;;;;;;2074035;28;828;-53
2020/12/16 00:15:18;;;;;;;;;;;13.30;99.10;;;;;;2073466;28;737;-52
2020/12/16 00:16:37;;;;;;;;;;;13.30;99.10;;;;;;2065753;28;759;-52
2020/12/16 00:17:56;;;;;;;;;;;13.30;99.10;;;;;;2070745;28;746;-52
2020/12/16 00:19:15;;;;;;;;;;;13.30;99.10;;;;;;2074416;28;817;-52
2020/12/16 00:20:35;;;;;;;;;;;13.20;99.00;;;;;;2074422;28;706;-51
2020/12/16 00:21:57;;;;;;;;;;;13.20;99.00;;;;;;2074112;28;1909;-50
2020/12/16 00:23:16;;;;;;;;;;;13.20;99.00;;;;;;2074273;28;870;-51
2020/12/16 00:24:35;;;;;;;;;;;13.20;99.00;;;;;;2074479;28;721;-53
2020/12/16 00:25:54;;;;;;;;;;;13.20;99.30;;;;;;2065254;28;780;-50
2020/12/16 00:27:14;;;;;;;;;;;13.20;99.30;;;;;;2070925;28;709;-51
2020/12/16 00:28:33;;;;;;;;;;;13.20;99.00;;;;;;2073953;28;745;-51
2020/12/16 00:29:52;;;;;;;;;;;13.20;99.00;;;;;;2073599;28;704;-53
2020/12/16 00:31:12;;;;;;;;;;;13.20;98.90;;;;;;2070340;28;1898;-52
2020/12/16 00:32:31;;;;;;;;;;;13.20;98.90;;;;;;2070402;28;750;-54
2020/12/16 00:33:50;;;;;;;;;;;13.20;98.90;;;;;;2071351;28;1875;-53
2020/12/16 00:35:09;;;;;;;;;;;13.20;98.90;;;;;;2079633;28;1070;-52
2020/12/16 00:36:29;;;;;;;;;;;13.20;98.90;;;;;;2074274;28;711;-50
2020/12/16 00:37:48;;;;;;;;;;;13.20;98.90;;;;;;2082243;28;952;-51
2020/12/16 00:39:07;;;;;;;;;;;13.20;98.90;;;;;;2076436;28;996;-55
2020/12/16 00:40:27;;;;;;;;;;;13.20;98.90;;;;;;2072800;28;730;-51
2020/12/16 00:41:46;;;;;;;;;;;13.20;98.90;;;;;;2070568;28;1355;-49
2020/12/16 00:43:05;;;;;;;;;;;13.20;98.90;;;;;;2073604;28;737;-51
2020/12/16 00:44:24;;;;;;;;;;;13.20;99.20;;;;;;2070312;28;731;-51
2020/12/16 00:45:43;;;;;;;;;;;13.20;99.10;;;;;;2078490;28;1489;-52
2020/12/16 00:47:03;;;;;;;;;;;13.20;98.80;;;;;;2085604;28;1429;-51
2020/12/16 00:48:22;;;;;;;;;;;13.20;98.80;;;;;;2084555;28;1023;-52
2020/12/16 00:49:41;;;;;;;;;;;13.20;98.80;;;;;;2073322;28;811;-52
2020/12/16 00:51:01;;;;;;;;;;;13.20;98.80;;;;;;2081129;28;1981;-48
2020/12/16 00:52:26;;;;;;;;;;;13.20;98.80;;;;;;2081190;28;734;-51
2020/12/16 00:53:45;;;;;;;;;;;13.20;98.80;;;;;;2080861;28;756;-53
2020/12/16 00:55:04;;;;;;;;;;;13.10;99.00;;;;;;2080947;28;724;-50
2020/12/16 00:56:23;;;;;;;;;;;13.10;98.70;;;;;;2084335;28;1034;-51
2020/12/16 00:57:43;;;;;;;;;;;13.10;99.00;;;;;;2084971;28;805;-52
2020/12/16 00:59:02;;;;;;;;;;;13.10;98.70;;;;;;2081842;28;710;-50
2020/12/16 01:00:21;;;;;;;;;;;13.10;98.70;;;;;;2084497;28;693;-53
2020/12/16 01:01:44;;;;;;;;;;;13.10;98.60;;;;;;2083937;28;1480;-52
2020/12/16 01:03:03;;;;;;;;;;;13.10;98.70;;;;;;2088773;28;729;-50
2020/12/16 01:04:23;;;;;;;;;;;13.10;98.60;;;;;;2083572;28;729;-54
2020/12/16 01:05:43;;;;;;;;;;;13.10;98.70;;;;;;2079468;28;721;-51
2020/12/16 01:07:02;;;;;;;;;;;13.10;98.60;;;;;;2078754;28;936;-50
2020/12/16 01:08:21;;;;;;;;;;;13.10;98.90;;;;;;2070110;28;1163;-49
2020/12/16 01:09:41;;;;;;;;;;;13.10;98.60;;;;;;2075507;28;934;-50
2020/12/16 01:11:01;;;;;;;;;;;13.10;98.50;;;;;;2078434;28;1940;-51
2020/12/16 01:12:23;;;;;;;;;;;13.10;98.50;;;;;;2078630;28;762;-53
2020/12/16 01:13:43;;;;;;;;;;;13.10;98.60;;;;;;2078200;28;725;-51
2020/12/16 01:15:12;;;;;;;;;;;13.10;98.60;;;;;;2069841;28;733;-50
2020/12/16 01:16:32;;;;;;;;;;;13.10;98.50;;;;;;2077444;28;720;-49
2020/12/16 01:17:52;;;;;;;;;;;13.10;98.60;;;;;;2081812;28;953;-51
2020/12/16 01:19:19;;;;;;;;;;;13.00;98.50;;;;;;2073029;28;730;-50
2020/12/16 01:20:40;;;;;;;;;;;13.10;98.50;;;;;;2076715;28;699;-52
2020/12/16 01:22:01;;;;;;;;;;;13.10;98.50;;;;;;2070124;28;1495;-53
2020/12/16 01:23:21;;;;;;;;;;;13.10;98.50;;;;;;2070291;28;768;-52
2020/12/16 01:24:41;;;;;;;;;;;13.10;98.50;;;;;;2077908;28;755;-51
2020/12/16 01:26:00;;;;;;;;;;;13.00;98.40;;;;;;2077820;28;806;-51
2020/12/16 01:27:23;;;;;;;;;;;13.00;98.50;;;;;;2078215;28;719;-51
2020/12/16 01:28:42;;;;;;;;;;;13.00;98.40;;;;;;2078171;28;820;-52
2020/12/16 01:30:05;;;;;;;;;;;13.00;98.40;;;;;;2078388;28;854;-51
2020/12/16 01:31:24;;;;;;;;;;;13.00;98.30;;;;;;2081470;28;1973;-52
2020/12/16 01:32:43;;;;;;;;;;;13.00;98.30;;;;;;2081158;28;801;-50
2020/12/16 01:34:02;;;;;;;;;;;13.00;98.40;;;;;;2078026;28;737;-50
2020/12/16 01:35:44;;;;;;;;;;;13.00;98.30;;;;;;2081756;28;728;-49
2020/12/16 01:37:04;;;;;;;;;;;13.00;98.30;;;;;;2081630;28;723;-52
2020/12/16 01:38:28;;;;;;;;;;;13.00;98.30;;;;;;2073546;28;894;-52
2020/12/16 01:39:48;;;;;;;;;;;13.00;98.30;;;;;;2076220;28;1185;-52
2020/12/16 01:41:13;;;;;;;;;;;13.00;98.30;;;;;;2078645;28;1358;-52
2020/12/16 01:42:40;;;;;;;;;;;13.00;98.30;;;;;;2081753;28;737;-54
2020/12/16 01:44:12;;;;;;;;;;;13.00;98.30;;;;;;2081127;28;789;-51
2020/12/16 01:45:32;;;;;;;;;;;13.00;98.30;;;;;;2071050;28;728;-50
2020/12/16 01:46:53;;;;;;;;;;;13.00;98.30;;;;;;2075096;28;745;-49
2020/12/16 01:48:16;;;;;;;;;;;13.00;98.60;;;;;;2078494;28;782;-48
2020/12/16 01:49:35;;;;;;;;;;;13.00;98.20;;;;;;2078164;28;762;-52
2020/12/16 01:50:55;;;;;;;;;;;13.00;98.20;;;;;;2077816;28;1902;-50
2020/12/16 01:52:15;;;;;;;;;;;13.00;98.30;;;;;;2077961;28;803;-52
2020/12/16 01:53:42;;;;;;;;;;;13.00;98.20;;;;;;2071047;28;714;-52
2020/12/16 01:55:00;;;;;;;;;;;13.00;98.30;;;;;;2066983;28;764;-51
2020/12/16 01:56:25;;;;;;;;;;;13.00;98.20;;;;;;2067514;28;812;-52
2020/12/16 01:57:54;;;;;;;;;;;13.00;98.20;;;;;;2078221;28;727;-50
2020/12/16 01:59:17;;;;;;;;;;;13.00;98.20;;;;;;2078115;28;752;-53
2020/12/16 02:00:42;;;;;;;;;;;13.00;98.20;;;;;;2078627;28;741;-51
2020/12/16 02:02:02;;;;;;;;;;;12.90;98.50;;;;;;2078722;28;1352;-51
2020/12/16 02:03:22;;;;;;;;;;;12.90;98.40;;;;;;2081394;28;728;-51
2020/12/16 02:04:57;;;;;;;;;;;12.90;98.20;;;;;;2079773;28;722;-52
2020/12/16 02:06:16;;;;;;;;;;;12.90;98.10;;;;;;2069634;28;756;-52
2020/12/16 02:07:38;;;;;;;;;;;12.90;98.10;;;;;;2068697;28;1013;-52
2020/12/16 02:09:04;;;;;;;;;;;12.90;98.10;;;;;;2073289;28;1126;-52
2020/12/16 02:10:24;;;;;;;;;;;12.90;98.10;;;;;;2070536;28;1218;-51
2020/12/16 02:11:43;;;;;;;;;;;12.90;98.10;;;;;;2077769;28;1964;-53
2020/12/16 02:13:11;;;;;;;;;;;12.90;98.10;;;;;;2081052;28;729;-53
2020/12/16 02:14:35;;;;;;;;;;;12.90;98.10;;;;;;2078613;28;705;-51
2020/12/16 02:15:54;;;;;;;;;;;12.90;98.00;;;;;;2077783;28;709;-51
2020/12/16 02:17:16;;;;;;;;;;;12.90;98.00;;;;;;2078067;28;745;-53
2020/12/16 02:18:39;;;;;;;;;;;12.90;98.00;;;;;;2078393;28;711;-51
2020/12/16 02:20:07;;;;;;;;;;;12.90;98.40;;;;;;2078779;28;936;-49
2020/12/16 02:21:31;;;;;;;;;;;12.90;98.00;;;;;;2069986;28;1416;-51
2020/12/16 02:22:50;;;;;;;;;;;12.90;98.30;;;;;;2075124;28;731;-49
2020/12/16 02:24:11;;;;;;;;;;;12.90;98.30;;;;;;2086018;28;789;-52
2020/12/16 02:25:33;;;;;;;;;;;12.90;98.00;;;;;;2071978;28;732;-49
2020/12/16 02:26:56;;;;;;;;;;;12.90;97.90;;;;;;2069650;28;728;-51
2020/12/16 02:28:16;;;;;;;;;;;12.90;97.90;;;;;;2078409;28;811;-51
2020/12/16 02:29:38;;;;;;;;;;;12.90;97.90;;;;;;2078133;28;737;-50
2020/12/16 02:31:10;;;;;;;;;;;12.90;97.90;;;;;;2078931;28;1977;-52
2020/12/16 02:32:49;;;;;;;;;;;12.90;98.20;;;;;;2080965;28;707;-50
2020/12/16 02:34:09;;;;;;;;;;;12.90;97.90;;;;;;2080990;28;727;-50
2020/12/16 02:35:31;;;;;;;;;;;12.90;97.90;;;;;;2077571;28;711;-52
2020/12/16 02:37:02;;;;;;;;;;;12.90;97.90;;;;;;2079362;28;760;-51
2020/12/16 02:38:32;;;;;;;;;;;12.90;98.10;;;;;;2077563;28;889;-51
2020/12/16 02:39:52;;;;;;;;;;;12.90;97.90;;;;;;2065299;28;1057;-50
2020/12/16 02:41:17;;;;;;;;;;;12.80;97.80;;;;;;2074793;28;1396;-51
2020/12/16 02:42:36;;;;;;;;;;;12.90;97.90;;;;;;2077437;28;747;-52
2020/12/16 02:43:55;;;;;;;;;;;12.80;98.10;;;;;;2077543;28;718;-50
2020/12/16 02:45:15;;;;;;;;;;;12.80;97.80;;;;;;2080425;28;707;-52
2020/12/16 02:46:47;;;;;;;;;;;12.80;98.10;;;;;;2080715;28;744;-52
2020/12/16 02:48:08;;;;;;;;;;;12.80;98.10;;;;;;2077797;28;742;-51
2020/12/16 02:49:29;;;;;;;;;;;12.80;97.70;;;;;;2075557;28;1119;-51
2020/12/16 02:50:48;;;;;;;;;;;12.80;97.70;;;;;;2077624;28;1006;-48
2020/12/16 02:52:07;;;;;;;;;;;12.80;97.80;;;;;;2081173;28;722;-51
2020/12/16 02:53:27;;;;;;;;;;;12.80;97.70;;;;;;2077524;28;1116;-50
2020/12/16 02:55:13;;;;;;;;;;;12.80;97.80;;;;;;2077355;28;1319;-53
2020/12/16 02:56:46;;;;;;;;;;;12.80;97.70;;;;;;2073908;28;1237;-50
2020/12/16 02:58:06;;;;;;;;;;;12.80;97.70;;;;;;2070362;28;1445;-52
2020/12/16 02:59:25;;;;;;;;;;;12.80;97.70;;;;;;2072567;28;1234;-51
2020/12/16 03:00:50;;;;;;;;;;;12.80;97.70;;;;;;2078066;28;1212;-49
2020/12/16 03:02:28;;;;;;;;;;;12.80;97.70;;;;;;2077729;28;1018;-52
2020/12/16 03:03:55;;;;;;;;;;;12.80;97.70;;;;;;2076551;28;1409;-51
2020/12/16 03:05:49;;;;;;;;;;;12.80;97.70;;;;;;2062040;28;1190;-48
2020/12/16 03:07:26;;;;;;;;;;;12.80;97.70;;;;;;2054720;28;1176;-52
2020/12/16 03:08:47;;;;;;;;;;;12.80;97.60;;;;;;2075146;28;1224;-50
2020/12/16 03:10:07;;;;;;;;;;;12.80;97.60;;;;;;2070455;28;1310;-51
2020/12/16 03:11:27;;;;;;;;;;;12.80;97.60;;;;;;2074014;28;1968;-51
2020/12/16 03:12:47;;;;;;;;;;;12.80;97.60;;;;;;2071814;28;1168;-51
2020/12/16 03:14:07;;;;;;;;;;;12.80;97.60;;;;;;2073931;28;1211;-50
2020/12/16 03:15:27;;;;;;;;;;;12.80;97.60;;;;;;2073056;28;1394;-51
2020/12/16 03:16:47;;;;;;;;;;;12.70;97.60;;;;;;2076281;28;1190;-50
2020/12/16 03:18:15;;;;;;;;;;;12.70;97.60;;;;;;2075174;28;1100;-50
2020/12/16 03:19:34;;;;;;;;;;;12.70;97.60;;;;;;2076662;28;1216;-54
2020/12/16 03:20:55;;;;;;;;;;;12.70;97.50;;;;;;2079979;28;1398;-51
2020/12/16 03:22:14;;;;;;;;;;;12.70;97.90;;;;;;2077748;28;1112;-51
2020/12/16 03:23:57;;;;;;;;;;;12.70;97.50;;;;;;2076438;28;1172;-52
2020/12/16 03:25:41;;;;;;;;;;;12.70;97.50;;;;;;2076806;28;1390;-50
2020/12/16 03:27:21;;;;;;;;;;;12.70;97.50;;;;;;2077352;28;1238;-52
2020/12/16 03:29:00;;;;;;;;;;;12.70;97.50;;;;;;2079893;28;1130;-52
2020/12/16 03:30:55;;;;;;;;;;;12.70;97.50;;;;;;2071008;28;1955;-52
2020/12/16 03:32:35;;;;;;;;;;;12.70;97.50;;;;;;2083326;28;1414;-54
2020/12/16 03:34:06;;;;;;;;;;;12.70;97.50;;;;;;2080455;28;1263;-50
2020/12/16 03:35:33;;;;;;;;;;;12.70;97.50;;;;;;2077226;28;1501;-52
2020/12/16 03:36:55;;;;;;;;;;;12.70;97.50;;;;;;2076064;28;1404;-52
2020/12/16 03:38:15;;;;;;;;;;;12.70;97.50;;;;;;2076390;28;1119;-52
2020/12/16 03:39:38;;;;;;;;;;;12.70;97.50;;;;;;2074242;28;2077;-50
2020/12/16 03:40:58;;;;;;;;;;;12.70;97.40;;;;;;2076876;28;1047;-50
2020/12/16 03:42:21;;;;;;;;;;;12.70;97.40;;;;;;2077713;28;1136;-52
2020/12/16 03:43:43;;;;;;;;;;;12.70;97.40;;;;;;2076220;28;1119;-53
2020/12/16 03:45:02;;;;;;;;;;;12.70;97.40;;;;;;2072871;28;1291;-52
2020/12/16 03:46:22;;;;;;;;;;;12.70;97.40;;;;;;2073631;28;1373;-52
2020/12/16 03:47:42;;;;;;;;;;;12.70;97.40;;;;;;2075878;28;1254;-50
2020/12/16 03:49:02;;;;;;;;;;;12.70;97.70;;;;;;2073822;28;1070;-52
2020/12/16 03:50:26;;;;;;;;;;;12.70;97.60;;;;;;2070294;28;1212;-54
2020/12/16 03:51:50;;;;;;;;;;;12.70;97.40;;;;;;2070903;28;1923;-51
2020/12/16 03:53:09;;;;;;;;;;;12.70;97.30;;;;;;2066055;28;1064;-51
2020/12/16 03:54:51;;;;;;;;;;;12.60;97.30;;;;;;2062968;28;1229;-50
2020/12/16 03:56:20;;;;;;;;;;;12.70;97.30;;;;;;2077223;28;1124;-51
2020/12/16 03:57:58;;;;;;;;;;;12.60;97.30;;;;;;2079053;28;1157;-50
2020/12/16 03:59:39;;;;;;;;;;;12.60;97.30;;;;;;2072534;28;1386;-51
2020/12/16 04:01:34;;;;;;;;;;;12.60;97.30;;;;;;2078590;28;1480;-51
2020/12/16 04:02:54;;;;;;;;;;;12.60;97.30;;;;;;2077159;28;1288;-53
2020/12/16 04:04:35;;;;;;;;;;;12.60;97.30;;;;;;2072489;28;1048;-51
2020/12/16 04:05:59;;;;;;;;;;;12.60;97.20;;;;;;2074808;28;1162;-53
2020/12/16 04:07:18;;;;;;;;;;;12.60;97.20;;;;;;2072661;28;1448;-50
2020/12/16 04:08:48;;;;;;;;;;;12.60;97.20;;;;;;2075671;28;1283;-51
2020/12/16 04:10:28;;;;;;;;;;;12.60;97.30;;;;;;2081334;28;1303;-50
2020/12/16 04:11:47;;;;;;;;;;;12.60;97.20;;;;;;2077499;28;1993;-51
2020/12/16 04:13:17;;;;;;;;;;;12.60;97.20;;;;;;2069935;28;1321;-50
2020/12/16 04:14:37;;;;;;;;;;;12.60;97.20;;;;;;2070595;28;1399;-52
2020/12/16 04:15:59;;;;;;;;;;;12.60;97.20;;;;;;2077897;28;1386;-50
2020/12/16 04:17:18;;;;;;;;;;;12.60;97.20;;;;;;2070368;28;1302;-53
2020/12/16 04:18:54;;;;;;;;;;;12.60;97.20;;;;;;2067578;28;1166;-52
2020/12/16 04:20:13;;;;;;;;;;;12.60;97.10;;;;;;2068970;28;1246;-53
2020/12/16 04:21:45;;;;;;;;;;;12.60;97.20;;;;;;2077330;28;1486;-50
2020/12/16 04:23:09;;;;;;;;;;;12.60;97.20;;;;;;2078429;28;1123;-51
2020/12/16 04:24:29;;;;;;;;;;;12.60;97.50;;;;;;2073787;28;960;-53
2020/12/16 04:26:06;;;;;;;;;;;12.60;97.20;;;;;;2077369;28;984;-50
2020/12/16 04:27:25;;;;;;;;;;;12.60;97.20;;;;;;2076433;28;1067;-50
2020/12/16 04:28:44;;;;;;;;;;;12.60;97.20;;;;;;2078810;28;1088;-53
2020/12/16 04:30:04;;;;;;;;;;;12.50;97.10;;;;;;2079467;28;1277;-50
2020/12/16 04:31:24;;;;;;;;;;;12.60;97.20;;;;;;2073350;28;1902;-52
2020/12/16 04:32:49;;;;;;;;;;;12.50;97.20;;;;;;2074512;28;1191;-51
2020/12/16 04:34:08;;;;;;;;;;;12.60;97.00;;;;;;2075299;28;1154;-50
2020/12/16 04:35:29;;;;;;;;;;;12.60;95.90;;;;;;2076373;28;1453;-51
2020/12/16 04:36:50;;;;;;;;;;;12.60;95.20;;;;;;2079894;28;1199;-52
2020/12/16 04:38:11;;;;;;;;;;;12.50;92.60;;;;;;2082637;28;1304;-51
2020/12/16 04:39:38;;;;;;;;;;;12.50;91.00;;;;;;2067693;28;1282;-50
2020/12/16 04:40:59;;;;;;;;;;;12.50;88.70;;;;;;2061882;28;1137;-52
2020/12/16 04:42:18;;;;;;;;;;;12.50;86.80;;;;;;2075276;28;1198;-53
2020/12/16 04:43:41;;;;;;;;;;;12.50;85.70;;;;;;2069781;28;1132;-51
2020/12/16 04:45:00;;;;;;;;;;;12.50;85.30;;;;;;2068409;28;1372;-52
2020/12/16 04:46:24;;;;;;;;;;;12.50;85.30;;;;;;2066054;28;1106;-49
2020/12/16 04:47:48;;;;;;;;;;;12.40;84.90;;;;;;2062199;28;1101;-50
2020/12/16 04:49:09;;;;;;;;;;;12.40;87.60;;;;;;2073907;28;1171;-50
2020/12/16 04:50:32;;;;;;;;;;;12.40;89.10;;;;;;2075373;28;1249;-50
2020/12/16 04:51:51;;;;;;;;;;;12.40;90.50;;;;;;2058140;28;1907;-51
2020/12/16 04:53:24;;;;;;;;;;;12.40;90.80;;;;;;2067568;28;1136;-50
2020/12/16 04:54:58;;;;;;;;;;;12.50;91.30;;;;;;2077662;28;902;-53
2020/12/16 04:56:23;;;;;;;;;;;12.40;91.10;;;;;;2077728;28;1063;-54
2020/12/16 04:57:57;;;;;;;;;;;12.40;91.10;;;;;;2084706;28;1089;-49
2020/12/16 04:59:17;;;;;;;;;;;12.40;91.20;;;;;;2072410;28;1143;-49
2020/12/16 05:00:50;;;;;;;;;;;12.40;91.30;;;;;;2075368;28;1104;-50
2020/12/16 05:02:15;;;;;;;;;;;12.40;91.40;;;;;;2073811;28;1028;-49
2020/12/16 05:04:10;;;;;;;;;;;12.40;91.50;;;;;;2059142;28;1291;-51
2020/12/16 05:05:39;;;;;;;;;;;12.40;91.60;;;;;;2052102;28;1220;-51
2020/12/16 05:06:58;;;;;;;;;;;12.40;91.70;;;;;;2078938;28;1252;-51
2020/12/16 05:08:18;;;;;;;;;;;12.40;91.70;;;;;;2076732;28;1076;-53
2020/12/16 05:09:37;;;;;;;;;;;12.40;91.80;;;;;;2076147;28;1166;-50
2020/12/16 05:10:56;;;;;;;;;;;12.40;91.90;;;;;;2073810;28;1135;-51
2020/12/16 05:12:16;;;;;;;;;;;12.40;92.10;;;;;;2063323;28;1083;-50
2020/12/16 05:13:35;;;;;;;;;;;12.40;92.10;;;;;;2070616;28;1250;-52
2020/12/16 05:14:54;;;;;;;;;;;12.40;92.10;;;;;;2075280;28;1242;-51
2020/12/16 05:16:13;;;;;;;;;;;12.40;92.10;;;;;;2076944;28;1061;-52
2020/12/16 05:17:32;;;;;;;;;;;12.40;92.10;;;;;;2058147;28;1276;-50
2020/12/16 05:19:03;;;;;;;;;;;12.40;92.20;;;;;;2073196;28;962;-51
2020/12/16 05:20:27;;;;;;;;;;;12.40;92.20;;;;;;2074710;28;1139;-52
2020/12/16 05:21:46;;;;;;;;;;;12.40;92.30;;;;;;2075041;28;1538;-50
2020/12/16 05:23:05;;;;;;;;;;;12.40;92.40;;;;;;2078984;28;1151;-51
2020/12/16 05:24:25;;;;;;;;;;;12.40;92.40;;;;;;2078832;28;1218;-50
2020/12/16 05:26:00;;;;;;;;;;;12.40;92.40;;;;;;2076992;28;1373;-51
2020/12/16 05:27:22;;;;;;;;;;;12.40;92.50;;;;;;2075475;28;1135;-54
2020/12/16 05:28:49;;;;;;;;;;;12.40;92.60;;;;;;2072270;28;1198;-52
2020/12/16 05:30:09;;;;;;;;;;;12.40;92.60;;;;;;2067328;28;1617;-48
2020/12/16 05:31:28;;;;;;;;;;;12.40;92.60;;;;;;2067782;28;1973;-49
2020/12/16 05:32:48;;;;;;;;;;;12.40;92.60;;;;;;2072842;28;1256;-52
2020/12/16 05:34:07;;;;;;;;;;;12.30;92.60;;;;;;2076210;28;1077;-51
2020/12/16 05:35:26;;;;;;;;;;;12.30;92.60;;;;;;2063809;28;1128;-51
2020/12/16 05:36:45;;;;;;;;;;;12.30;92.70;;;;;;2073092;28;1118;-51
2020/12/16 05:38:08;;;;;;;;;;;12.30;92.70;;;;;;2078024;28;1140;-54
2020/12/16 05:39:27;;;;;;;;;;;12.30;92.70;;;;;;2070009;28;1209;-51
2020/12/16 05:40:46;;;;;;;;;;;12.30;93.00;;;;;;2073000;28;1384;-52
2020/12/16 05:42:05;;;;;;;;;;;12.30;92.80;;;;;;2075670;28;1114;-52
2020/12/16 05:43:26;;;;;;;;;;;12.30;92.80;;;;;;2068012;28;1374;-52
2020/12/16 05:44:45;;;;;;;;;;;12.30;92.80;;;;;;2077151;28;1189;-51
2020/12/16 05:46:05;;;;;;;;;;;12.30;92.90;;;;;;2077997;28;1236;-51
2020/12/16 05:47:24;;;;;;;;;;;12.30;92.90;;;;;;2080450;28;1277;-51
2020/12/16 05:48:43;;;;;;;;;;;12.30;93.00;;;;;;2076511;28;1049;-52
2020/12/16 05:50:02;;;;;;;;;;;12.30;92.90;;;;;;2078848;28;1028;-50
2020/12/16 05:51:22;;;;;;;;;;;12.30;92.90;;;;;;2078965;28;1910;-50
2020/12/16 05:52:41;;;;;;;;;;;12.30;93.00;;;;;;2075614;28;1019;-49
2020/12/16 05:54:00;;;;;;;;;;;12.30;93.00;;;;;;2063724;28;1211;-51
2020/12/16 05:55:26;;;;;;;;;;;12.30;93.00;;;;;;2067782;28;1167;-51
2020/12/16 05:56:45;;;;;;;;;;;12.30;93.30;;;;;;2080266;28;1333;-50
2020/12/16 05:58:14;;;;;;;;;;;12.30;93.10;;;;;;2080400;28;1109;-52
2020/12/16 05:59:33;;;;;;;;;;;12.30;93.10;;;;;;2077517;28;1215;-52
2020/12/16 06:00:53;;;;;;;;;;;12.30;93.10;;;;;;2078209;28;1235;-52
2020/12/16 06:02:12;;;;;;;;;;;12.30;93.10;;;;;;2079518;28;1224;-50
2020/12/16 06:03:31;;;;;;;;;;;12.30;93.20;;;;;;2062073;28;1147;-50
2020/12/16 06:04:51;;;;;;;;;;;12.30;93.20;;;;;;2074209;28;1250;-51
2020/12/16 06:06:10;;;;;;;;;;;12.30;93.10;;;;;;2078968;28;1142;-53
2020/12/16 06:07:30;;;;;;;;;;;12.30;93.20;;;;;;2073902;28;1146;-51
2020/12/16 06:08:49;;;;;;;;;;;12.30;93.20;;;;;;2070591;28;1317;-51
2020/12/16 06:10:08;;;;;;;;;;;12.30;93.20;;;;;;2072155;28;1209;-51
2020/12/16 06:11:27;;;;;;;;;;;12.30;93.20;;;;;;2077722;28;1966;-49
2020/12/16 06:12:46;;;;;;;;;;;12.30;93.20;;;;;;2077272;28;1155;-52
2020/12/16 06:14:05;;;;;;;;;;;12.20;93.50;;;;;;2079274;28;1199;-52
2020/12/16 06:15:24;;;;;;;;;;;12.30;93.30;;;;;;2074308;28;1159;-53
2020/12/16 06:16:46;;;;;;;;;;;12.30;93.30;;;;;;2072537;28;1237;-52
2020/12/16 06:18:05;;;;;;;;;;;12.20;93.30;;;;;;2071299;28;1248;-50
2020/12/16 06:19:25;;;;;;;;;;;12.30;93.40;;;;;;2071310;28;1465;-52
2020/12/16 06:20:44;;;;;;;;;;;12.20;93.30;;;;;;2074427;28;1198;-51
2020/12/16 06:22:06;;;;;;;;;;;12.30;93.30;;;;;;2078957;28;1373;-50
2020/12/16 06:23:29;;;;;;;;;;;12.20;93.20;;;;;;2079168;28;1173;-53
2020/12/16 06:24:48;;;;;;;;;;;12.20;93.30;;;;;;2076916;28;1134;-50
2020/12/16 06:26:14;;;;;;;;;;;12.20;93.30;;;;;;2078327;28;1213;-49
2020/12/16 06:27:54;;;;;;;;;;;12.20;93.30;;;;;;2077009;28;1120;-50
2020/12/16 06:29:12;;;;;;;;;;;12.20;93.30;;;;;;2076930;28;1345;-51
2020/12/16 06:30:32;;;;;;;;;;;12.20;93.30;;;;;;2079706;28;1251;-50
2020/12/16 06:31:51;;;;;;;;;;;12.20;93.30;;;;;;2075054;28;1910;-50
2020/12/16 06:33:11;;;;;;;;;;;12.20;93.30;;;;;;2071975;28;1132;-50
2020/12/16 06:34:30;;;;;;;;;;;12.20;93.40;;;;;;2071737;28;1303;-49
2020/12/16 06:35:50;;;;;;;;;;;12.20;93.30;;;;;;2076035;28;1180;-49
2020/12/16 06:37:13;;;;;;;;;;;12.20;93.30;;;;;;2076680;28;1167;-50
2020/12/16 06:38:39;;;;;;;;;;;12.20;93.40;;;;;;2075286;28;1065;-51
2020/12/16 06:39:58;;;;;;;;;;;12.20;93.70;;;;;;2074431;28;1107;-52
2020/12/16 06:41:17;;;;;;;;;;;12.20;93.40;;;;;;2079498;28;1419;-51
2020/12/16 06:42:37;;;;;;;;;;;12.20;93.30;;;;;;2075501;28;1261;-51
2020/12/16 06:43:56;;;;;;;;;;;12.20;93.70;;;;;;2076451;28;1312;-50
2020/12/16 06:45:16;;;;;;;;;;;12.20;93.40;;;;;;2075380;28;1083;-51
2020/12/16 06:46:35;;;;;;;;;;;12.20;93.10;;;;;;2066056;28;1248;-50
2020/12/16 06:47:54;;;;;;;;;;;12.20;92.80;;;;;;2067798;28;1141;-49
2020/12/16 06:49:38;;;;;;;;;;;12.20;93.00;;;;;;2075080;28;1103;-49
2020/12/16 06:51:16;;;;;;;;;;;12.20;93.10;;;;;;2065827;28;1394;-50
2020/12/16 06:52:35;;;;;;;;;;;12.20;92.60;;;;;;2079568;28;1338;-51
2020/12/16 06:54:04;;;;;;;;;;;12.20;92.80;;;;;;2069559;28;1068;-52
2020/12/16 06:55:23;;;;;;;;;;;12.20;93.40;;;;;;2075781;28;1052;-49
2020/12/16 06:56:42;;;;;;;;;;;12.20;93.40;;;;;;2080955;28;1178;-49
2020/12/16 06:58:02;;;;;;;;;;;12.20;93.40;;;;;;2080488;28;1215;-50
2020/12/16 06:59:39;;;;;;;;;;;12.20;93.40;;;;;;2077623;28;1149;-49
2020/12/16 07:01:25;;;;;;;;;;;12.20;93.50;;;;;;2078999;28;1147;-51
2020/12/16 07:02:44;;;;;;;;;;;12.20;93.60;;;;;;2081168;28;1302;-49
2020/12/16 07:04:03;;;;;;;;;;;12.20;93.60;;;;;;2077125;28;1269;-50
2020/12/16 07:05:34;;;;;;;;;;;12.20;93.70;;;;;;2077475;28;1131;-50
2020/12/16 07:06:53;;;;;;;;;;;12.20;94.00;;;;;;2079950;28;1208;-50
2020/12/16 07:08:12;;;;;;;;;;;12.20;93.70;;;;;;2080827;28;1051;-51
2020/12/16 07:09:32;;;;;;;;;;;12.20;93.70;;;;;;2078008;28;1144;-51
2020/12/16 07:10:51;;;;;;;;;;;12.20;93.70;;;;;;2077998;28;1110;-51
2020/12/16 07:12:13;;;;;;;;;;;12.20;93.70;;;;;;2080897;28;1109;-49
2020/12/16 07:13:33;;;;;;;;;;;12.10;93.70;;;;;;2077772;28;1242;-49
2020/12/16 07:14:52;;;;;;;;;;;12.20;93.70;;;;;;2073812;28;1064;-51
2020/12/16 07:16:14;;;;;;;;;;;12.20;93.80;;;;;;2062711;28;1130;-49
2020/12/16 07:17:34;;;;;;;;;;;12.20;93.70;;;;;;2075358;28;1085;-50
2020/12/16 07:18:53;;;;;;;;;;;12.20;93.80;;;;;;2080905;28;1270;-50
2020/12/16 07:20:30;;;;;;;;;;;12.20;93.60;;;;;;2064609;28;1237;-49
2020/12/16 07:21:49;;;;;;;;;;;12.30;93.60;;;;;;2079602;28;1411;-51
2020/12/16 07:23:09;;;;;;;;;;;12.30;93.50;;;;;;2079340;28;1234;-51
2020/12/16 07:24:29;;;;;;;;;;;12.40;93.10;;;;;;2075265;28;1048;-49
2020/12/16 07:25:48;;;;;;;;;;;12.40;92.80;;;;;;2081189;28;1263;-48
2020/12/16 07:27:07;;;;;;;;;;;12.50;92.50;;;;;;2080230;28;1111;-49
2020/12/16 07:28:27;;;;;;;;;;;12.60;92.20;;;;;;2065020;28;1047;-50
2020/12/16 07:29:52;;;;;;;;;;;12.60;91.80;;;;;;2071315;28;1471;-49
2020/12/16 07:31:11;;;;;;;;;;;12.70;91.50;;;;;;2079896;28;1903;-51
2020/12/16 07:32:30;;;;;;;;;;;12.70;91.20;;;;;;2080896;28;1171;-50
2020/12/16 07:33:50;;;;;;;;;;;12.80;90.90;;;;;;2076543;28;1218;-53
2020/12/16 07:35:09;;;;;;;;;;;12.90;90.70;;;;;;2077588;28;1176;-49
2020/12/16 07:36:28;;;;;;;;;;;12.90;90.30;;;;;;2081109;28;1297;-51
2020/12/16 07:37:47;;;;;;;;;;;13.00;90.00;;;;;;2080096;28;1511;-51
2020/12/16 07:39:07;;;;;;;;;;;13.00;89.30;;;;;;2072552;28;1316;-51
2020/12/16 07:40:26;;;;;;;;;;;13.10;88.50;;;;;;2080976;28;1843;-52
2020/12/16 07:41:45;;;;;;;;;;;13.20;87.80;;;;;;2079807;28;1394;-51
2020/12/16 07:43:04;;;;;;;;;;;13.30;87.20;;;;;;2080132;28;1143;-49
2020/12/16 07:44:23;;;;;;;;;;;13.30;86.80;;;;;;2077503;28;1155;-49
2020/12/16 07:45:42;;;;;;;;;;;13.40;86.10;;;;;;2080278;28;1278;-49
2020/12/16 07:47:03;;;;;;;;;;;13.40;85.30;;;;;;2082059;28;791;-49
2020/12/16 07:48:22;;;;;;;;;;;13.50;85.50;;;;;;2081321;28;1447;-51
2020/12/16 07:49:41;;;;;;;;;;;13.50;84.30;;;;;;2079325;28;1208;-50
2020/12/16 07:51:04;;;;;;;;;;;13.60;83.70;;;;;;2078248;28;1211;-50
2020/12/16 07:52:24;;;;;;;;;;;13.70;83.20;;;;;;2081353;28;1493;-51
2020/12/16 07:53:44;;;;;;;;;;;13.80;82.50;;;;;;2072383;28;1073;-50
2020/12/16 07:55:03;;;;;;;;;;;13.80;81.80;;;;;;2077041;28;1229;-51
2020/12/16 07:56:22;;;;;;;;;;;13.90;81.30;;;;;;2081368;28;1231;-52
2020/12/16 07:57:41;;;;;;;;;;;14.00;80.60;;;;;;2072080;28;1242;-50
2020/12/16 07:59:10;;;;;;;;;;;14.00;80.00;;;;;;2075971;28;1043;-51
2020/12/16 08:00:29;;;;;;;;;;;14.00;79.60;;;;;;2076846;28;1176;-51
2020/12/16 08:01:49;;;;;;;;;;;14.00;79.20;;;;;;2077298;28;1408;-51
2020/12/16 08:03:08;;;;;;;;;;;14.10;79.10;;;;;;2078371;28;1147;-51
2020/12/16 08:04:27;;;;;;;;;;;14.00;79.00;;;;;;2081263;28;1208;-52
2020/12/16 08:05:56;;;;;;;;;;;14.00;78.90;;;;;;2080041;28;997;-50
2020/12/16 08:07:16;;;;;;;;;;;14.00;79.70;;;;;;2079941;28;1057;-51
2020/12/16 08:08:53;;;;;;;;;;;14.00;79.30;;;;;;2081236;28;1127;-50
2020/12/16 08:10:12;;;;;;;;;;;14.00;79.30;;;;;;2077959;28;778;-52
2020/12/16 08:11:31;;;;;;;;;;;14.10;79.80;;;;;;2078432;28;1886;-52